Latest Weather Observations for Willis Island

IDQ60801

Issued at 10:05 am EST Sunday 31 August 2014 (issued every 30 minutes, with the page automatically refreshed every 10 minutes)

About weather observations | Map of weather stations | Latest weather observations for QLD | Other Formats
Station Details ID: 200283 Name: WILLIS ISLAND Lat: -16.29 Lon: 149.97 Height: 9.29 m
Data from the previous 72 hours. | See also: Recent months at Willis Island
Date/Time
EST
Temp
°C
App
Temp
°C
Dew
Point
Rel
Hum
%
Delta-T
°C
Wind Press
QNH
hPa
Press
MSL
hPa
Rain
since 9 am
mm
Dir
 
Spd
km/h
Gust
km/h
Spd
kts
Gust
kts
31/10:00am 25.1 21.9 18.6 67 4.1 SE 33 39 18 21 1015.6 - 0.0
31/09:30am 24.1 20.6 18.7 72 3.4 SE 35 39 19 21 1015.9 - 0.0
31/09:00am 23.6 20.1 18.7 74 3.1 SE 35 39 19 21 1016.1 1016.1 0.0
31/08:30am 23.6 20.2 19.0 75 2.9 SSE 35 41 19 22 1016.0 - 0.0
31/08:00am 23.4 20.1 19.2 77 2.7 SSE 35 41 19 22 1015.7 - 0.0
31/07:30am 23.1 20.1 19.0 78 2.6 SE 33 39 18 21 1015.4 - 0.0
31/07:00am 22.9 19.5 19.1 79 2.4 SSE 35 39 19 21 1015.1 - 0.0
31/06:30am 23.0 19.6 18.9 78 2.6 SE 35 39 19 21 1014.7 - 0.0
31/06:00am 22.8 19.5 18.3 76 2.8 SE 33 39 18 21 1014.4 1014.4 0.0
31/05:30am 22.6 19.5 18.8 79 2.4 SE 33 39 18 21 1014.0 - 0.0
31/05:00am 22.5 18.9 18.5 78 2.5 SE 35 43 19 23 1013.8 - 0.0
31/04:30am 22.5 19.5 19.0 80 2.2 SE 33 39 18 21 1013.9 - 0.0
31/04:00am 22.2 19.4 19.4 84 1.8 SSE 33 39 18 21 1013.7 - 0.0
31/03:30am 22.7 19.3 18.9 79 2.4 SE 35 41 19 22 1013.8 - 0.0
31/03:00am 22.2 18.8 19.0 82 2.0 SSE 35 41 19 22 1013.9 1013.9 0.0
31/02:30am 22.5 19.4 18.9 80 2.3 SSE 33 39 18 21 1014.1 - 0.0
31/02:00am 22.4 18.7 19.1 81 2.1 SE 37 43 20 23 1014.5 - 0.0
31/01:30am 22.4 20.3 18.9 80 2.2 SSE 28 33 15 18 1014.5 - 0.0
31/01:00am 22.0 17.7 18.7 81 2.1 SE 39 46 21 25 1014.8 - 0.0
31/12:30am 22.8 18.9 17.8 73 3.1 SE 35 41 19 22 1015.1 - 0.0
31/12:00am 22.6 18.8 18.1 76 2.8 SE 35 41 19 22 1015.6 1015.6 0.0
 
Date/Time
EST
Temp
°C
App
Temp
°C
Dew
Point
Rel
Hum
%
Delta-T
°C
Wind Press
QNH
hPa
Press
MSL
hPa
Rain
since 9 am
mm
Dir
 
Spd
km/h
Gust
km/h
Spd
kts
Gust
kts
30/11:30pm 22.5 18.3 19.0 80 2.2 ESE 39 46 21 25 1015.8 - 0.0
30/11:00pm 22.8 19.5 18.3 76 2.8 SE 33 43 18 23 1015.9 - 0.0
30/10:30pm 22.4 18.7 19.1 81 2.1 SE 37 41 20 22 1016.0 - 0.0
30/10:00pm 22.6 19.1 18.8 79 2.4 SE 35 46 19 25 1016.1 - 0.0
30/09:30pm 22.8 18.4 18.5 77 2.7 SE 39 46 21 25 1016.4 - 0.0
30/09:00pm 23.2 19.5 18.4 74 3.0 SE 35 41 19 22 1016.3 1016.3 0.0
30/08:30pm 23.0 19.0 18.4 75 2.9 SE 37 43 20 23 1016.4 - 0.0
30/08:00pm 23.3 19.7 18.5 74 3.0 SE 35 41 19 22 1016.3 - 0.0
30/07:30pm 23.2 19.2 18.4 74 3.0 SE 37 43 20 23 1016.0 - 0.0
30/07:00pm 23.2 19.1 18.3 74 3.1 SE 37 43 20 23 1015.7 - 0.0
30/06:30pm 23.3 19.4 18.7 75 2.9 SE 37 43 20 23 1015.5 - 0.0
30/06:00pm 23.3 19.3 18.4 74 3.1 SE 37 43 20 23 1015.3 1015.3 0.0
30/05:30pm 23.4 19.7 18.3 73 3.2 SE 35 41 19 22 1015.1 - 0.0
30/05:00pm 23.4 19.7 18.3 73 3.2 ESE 35 41 19 22 1014.6 - 0.0
30/04:30pm 24.0 20.1 17.9 68 3.8 SE 35 43 19 23 1014.4 - 0.0
30/04:00pm 24.1 19.6 17.3 65 4.2 SE 37 43 20 23 1014.4 - 0.0
30/03:30pm 24.6 21.0 18.6 69 3.8 SE 35 43 19 23 1014.1 - 0.0
30/03:00pm 24.9 21.7 18.6 68 4.0 SE 33 39 18 21 1014.1 1014.1 0.0
30/02:30pm 24.3 21.0 18.4 69 3.7 SE 33 41 18 22 1013.8 - 0.0
30/02:00pm 25.4 21.5 17.0 59 5.2 SE 33 43 18 23 1013.8 - 0.0
30/01:30pm 25.0 21.9 18.9 69 3.9 SSE 33 39 18 21 1014.2 - 0.0
30/01:00pm 25.6 21.9 18.3 64 4.6 SE 35 43 19 23 1014.4 - 0.0
30/12:30pm 25.2 21.4 18.2 65 4.4 SE 35 43 19 23 1014.7 - 0.0
30/12:00pm 25.7 22.2 17.9 62 4.9 SE 33 39 18 21 1015.0 1015.0 0.0
30/11:30am 25.9 22.3 17.6 60 5.2 SE 33 39 18 21 1015.3 - 0.0
30/11:00am 25.6 22.1 18.0 63 4.8 SE 33 39 18 21 1016.2 - 0.0
30/10:30am 24.8 22.6 18.8 69 3.8 SSE 28 32 15 17 1016.7 - 0.0
30/10:00am 24.6 21.4 17.2 63 4.6 SE 30 35 16 19 1016.9 - 0.0
30/09:30am 24.8 21.1 17.0 62 4.8 SE 32 35 17 19 1017.2 - 0.0
30/09:00am 24.3 20.4 16.4 61 4.8 SE 32 35 17 19 1016.9 1016.9 0.0
30/08:30am 24.4 20.6 17.1 63 4.5 SE 33 39 18 21 1016.6 - 0.0
30/08:00am 24.2 19.6 16.0 60 5.0 SE 35 41 19 22 1016.3 - 0.0
30/07:30am 23.9 19.8 17.3 66 4.1 SE 35 43 19 23 1015.9 - 0.0
30/07:00am 23.6 18.4 15.6 61 4.8 SE 37 43 20 23 1015.3 - 0.0
30/06:30am 23.4 17.3 15.2 60 4.9 SE 41 48 22 26 1015.1 - 0.0
30/06:00am 23.2 16.6 15.3 61 4.7 SE 44 52 24 28 1014.8 1014.8 0.0
30/05:30am 23.2 17.1 16.3 65 4.2 SE 43 50 23 27 1015.0 - 0.0
30/05:00am 23.3 17.4 16.8 67 4.0 SE 43 48 23 26 1014.9 - 0.0
30/04:30am 23.2 18.1 16.7 67 4.0 SE 39 43 21 23 1015.1 - 0.0
30/04:00am 23.2 17.9 16.3 65 4.2 ESE 39 46 21 25 1014.8 - 0.0
30/03:30am 23.1 18.3 16.7 67 3.9 SE 37 43 20 23 1014.7 - 0.0
30/03:00am 23.1 18.8 16.9 68 3.8 SE 35 43 19 23 1014.7 1014.7 0.0
30/02:30am 23.1 18.8 16.9 68 3.8 SE 35 41 19 22 1015.0 - 0.0
30/02:00am 23.2 18.9 16.8 67 3.9 SE 35 41 19 22 1015.0 - 0.0
30/01:30am 23.2 19.2 16.7 67 4.0 SE 33 39 18 21 1015.3 - 0.0
30/01:00am 23.1 18.0 16.9 68 3.8 ESE 39 44 21 24 1015.6 - 0.0
30/12:30am 23.1 18.0 16.7 67 3.9 ESE 39 46 21 25 1015.7 - 0.0
30/12:00am 23.2 17.5 17.2 69 3.7 SE 43 50 23 27 1015.9 1015.9 0.0
 
Date/Time
EST
Temp
°C
App
Temp
°C
Dew
Point
Rel
Hum
%
Delta-T
°C
Wind Press
QNH
hPa
Press
MSL
hPa
Rain
since 9 am
mm
Dir
 
Spd
km/h
Gust
km/h
Spd
kts
Gust
kts
29/11:30pm 23.3 17.6 17.3 69 3.7 SE 43 50 23 27 1016.1 - 0.0
29/11:00pm 23.4 18.3 17.6 70 3.6 SE 41 48 22 26 1016.2 - 0.0
29/10:30pm 23.2 17.6 17.9 72 3.3 SE 44 52 24 28 1016.3 - 0.0
29/10:00pm 22.7 18.4 18.7 78 2.5 ESE 39 50 21 27 1016.4 - 0.0
29/09:30pm 23.6 18.5 17.6 69 3.7 SE 41 46 22 25 1016.4 - 0.0
29/09:00pm 23.5 17.9 17.4 68 3.8 SE 43 48 23 26 1016.6 1016.6 0.0
29/08:37pm 23.3 17.9 18.0 72 3.3 SSE 43 48 23 26 1016.4 - 0.0
29/08:30pm 23.6 19.6 18.5 73 3.2 ESE 37 43 20 23 1016.4 - 0.0
29/08:00pm 23.5 18.9 17.9 71 3.5 SE 39 46 21 25 1016.1 - 0.0
29/07:30pm 23.6 18.9 17.8 70 3.6 SE 39 44 21 24 1015.8 - 0.0
29/07:00pm 23.5 18.6 18.2 72 3.3 SE 41 46 22 25 1015.4 - 0.0
29/06:30pm 23.5 19.7 18.2 72 3.3 SE 35 43 19 23 1015.1 - 0.0
29/06:00pm 23.4 18.6 17.6 70 3.6 SE 39 46 21 25 1014.8 1014.8 0.0
29/05:30pm 23.6 18.9 17.8 70 3.6 SE 39 50 21 27 1014.5 - 0.0
29/05:00pm 23.7 18.2 17.6 68 3.8 SE 43 48 23 26 1014.3 - 0.0
29/04:30pm 24.2 19.3 17.4 65 4.2 SE 39 46 21 25 1014.3 - 0.0
29/04:00pm 24.5 19.7 17.6 65 4.3 SE 39 44 21 24 1014.2 - 0.0
29/03:30pm 24.5 19.5 17.1 63 4.6 SE 39 44 21 24 1014.1 - 0.0
29/03:00pm 24.8 19.5 16.3 59 5.2 SE 39 43 21 23 1014.4 1014.4 0.0
29/02:30pm 24.3 19.7 17.2 64 4.4 SE 37 43 20 23 1014.4 - 0.0
29/02:00pm 24.8 20.0 16.7 60 5.0 ESE 37 44 20 24 1014.7 - 0.0
29/01:30pm 25.0 20.4 17.1 61 4.9 ESE 37 43 20 23 1015.1 - 0.0
29/01:00pm 25.1 20.4 16.8 60 5.1 SE 37 44 20 24 1015.5 - 0.0
29/12:30pm 24.5 19.4 15.9 58 5.2 SE 37 44 20 24 1015.7 - 0.0
29/12:00pm 24.6 18.8 15.9 58 5.3 SE 41 48 22 26 1015.9 1015.9 0.0
29/11:30am 24.6 19.2 15.9 58 5.3 SE 39 44 21 24 1016.2 - 0.0
29/11:00am 24.9 19.4 15.8 57 5.5 SE 39 44 21 24 1016.6 - 0.0
29/10:30am 24.4 19.5 15.2 56 5.5 SE 35 48 19 26 1016.8 - 0.0
29/10:00am 23.7 17.8 14.6 56 5.4 SE 39 48 21 26 1017.0 - 0.0
29/09:30am 23.8 18.1 15.1 58 5.2 SE 39 48 21 26 1017.1 - 0.0
29/09:00am 23.5 17.8 15.1 59 5.0 SE 39 48 21 26 1017.1 1017.1 0.0
29/08:30am 23.3 18.2 14.9 59 5.0 SE 35 43 19 23 1017.0 - 0.0
29/08:00am 22.8 17.1 15.1 62 4.6 SE 39 48 21 26 1016.9 - 0.0
29/07:30am 22.4 16.9 14.6 61 4.6 SSE 37 46 20 25 1016.7 - 0.0
29/07:00am 21.8 16.7 14.7 64 4.2 SE 35 46 19 25 1016.7 - 0.0
29/06:30am 21.9 17.1 15.5 67 3.8 SE 35 44 19 24 1016.3 - 0.0
29/06:00am 21.4 15.2 13.8 62 4.4 SSE 39 46 21 25 1016.3 1016.3 0.0
29/05:30am 21.2 15.7 13.7 62 4.3 SSE 35 43 19 23 1016.0 - 0.0
29/05:00am 21.3 15.6 14.3 64 4.1 SSE 37 43 20 23 1015.7 - 0.0
29/04:30am 21.2 15.5 13.1 60 4.6 SE 35 44 19 24 1015.7 - 0.0
29/04:00am 21.4 16.0 14.0 62 4.3 SSE 35 41 19 22 1015.8 - 0.0
29/03:30am - - - - - SE 33 43 18 23 - - 0.0
29/03:00am 21.5 15.9 13.3 59 4.7 SE 35 43 19 23 1015.9 1015.9 0.0
29/02:30am 21.7 16.6 13.7 60 4.6 SSE 33 41 18 22 1016.2 - 0.0
29/02:00am 21.6 15.9 13.0 58 4.9 SSE 35 43 19 23 1016.4 - 0.0
29/01:30am 21.8 16.1 11.8 53 5.6 SSE 33 39 18 21 1016.6 - 0.0
29/01:00am 21.8 16.2 13.3 58 4.9 SE 35 43 19 23 1016.9 - 0.0
29/12:30am 21.9 16.4 13.6 59 4.8 SSE 35 41 19 22 1017.2 - 0.0
29/12:00am 21.9 16.5 13.8 60 4.7 SSE 35 41 19 22 1017.4 1017.4 0.0
 
Date/Time
EST
Temp
°C
App
Temp
°C
Dew
Point
Rel
Hum
%
Delta-T
°C
Wind Press
QNH
hPa
Press
MSL
hPa
Rain
since 9 am
mm
Dir
 
Spd
km/h
Gust
km/h
Spd
kts
Gust
kts
28/11:30pm 22.0 16.7 14.1 61 4.6 SSE 35 43 19 23 1017.6 - 0.0
28/11:00pm 22.0 16.3 12.9 56 5.2 SSE 35 43 19 23 1017.6 - 0.0
28/10:30pm 22.2 17.0 14.5 61 4.5 SSE 35 44 19 24 1017.8 - 0.0
28/10:00pm 22.3 16.8 14.8 62 4.4 SSE 37 44 20 24 1017.6 - 0.0
28/09:30pm 22.3 16.7 14.5 61 4.6 SSE 37 44 20 24 1017.6 - 0.0
28/09:00pm 22.2 16.4 12.7 55 5.4 SSE 35 43 19 23 1017.6 1017.6 0.0
28/08:30pm 22.4 17.9 15.4 64 4.2 S 33 43 18 23 1017.6 - 0.0
28/08:00pm 22.4 17.0 14.0 59 4.9 S 35 43 19 23 1017.3 - 0.0
28/07:30pm 22.4 16.9 13.6 57 5.1 SSE 35 43 19 23 1017.0 - 0.0
28/07:00pm 22.4 17.4 14.0 59 4.9 SSE 33 41 18 22 1016.5 - 0.0
28/06:30pm 22.5 16.8 12.9 54 5.5 SSE 35 43 19 23 1016.0 - 0.0
28/06:00pm 22.5 15.9 12.7 54 5.6 SSE 39 44 21 24 1015.5 1015.5 0.0
28/05:30pm 22.9 16.2 12.3 51 6.0 SSE 39 44 21 24 1015.2 - 0.0
28/05:00pm 23.3 17.1 12.8 51 6.0 SSE 37 43 20 23 1015.0 - 0.0
28/04:30pm 23.6 17.0 11.5 46 6.8 SSE 37 43 20 23 1014.8 - 0.0
28/04:00pm 23.9 17.8 11.7 46 6.9 SSE 35 43 19 23 1014.7 - 0.0
28/03:30pm 24.2 17.8 10.7 42 7.5 SSE 35 43 19 23 1014.5 - 0.0
28/03:00pm 24.5 18.2 10.9 42 7.6 SSE 35 44 19 24 1014.6 1014.6 0.0
28/02:30pm 24.6 18.5 10.3 40 7.9 SSE 33 41 18 22 1014.7 - 0.0
28/02:00pm 24.8 18.8 10.8 41 7.8 SSE 33 41 18 22 1015.1 - 0.0
28/01:30pm 25.0 18.7 11.1 41 7.8 SSE 35 41 19 22 1015.5 - 0.0
28/01:00pm 25.0 19.1 11.3 42 7.7 SSE 33 39 18 21 1015.7 - 0.0
28/12:30pm 25.3 19.6 11.8 43 7.7 SSE 33 41 18 22 1016.0 - 0.0
28/12:00pm 25.4 20.4 12.1 43 7.6 SSE 30 35 16 19 1016.4 1016.4 0.0
28/11:30am 25.1 19.4 11.9 43 7.5 SSE 33 39 18 21 1016.6 - 0.0
28/11:00am 25.1 19.2 11.2 41 7.8 SSE 33 39 18 21 1017.0 - 0.0
28/10:30am 24.8 18.7 10.3 40 8.0 SSE 33 39 18 21 1017.2 - 0.0

Other Formats:

Comma delimited format used in spreadsheet applications
http://www.bom.gov.au/fwo/IDQ60801/IDQ60801.94299.axf

JavaScript Object Notation format (JSON) in row-major order
http://www.bom.gov.au/fwo/IDQ60801/IDQ60801.94299.json